createdAt,value
2022-12-24T00:01:32.688Z,5.60
2022-12-24T00:03:59.292Z,5.54
2022-12-24T00:06:25.774Z,5.51
2022-12-24T00:08:52.564Z,5.38
2022-12-24T00:11:20.740Z,5.84
2022-12-24T00:13:47.797Z,6.06
2022-12-24T00:16:14.994Z,5.74
2022-12-24T00:18:45.749Z,6.13
2022-12-24T00:21:12.966Z,6.00
2022-12-24T00:23:40.458Z,6.08
2022-12-24T00:26:07.457Z,5.61
2022-12-24T00:28:33.973Z,6.28
2022-12-24T00:31:00.516Z,6.41
2022-12-24T00:33:27.799Z,6.29
2022-12-24T00:35:55.167Z,5.63
2022-12-24T00:38:21.767Z,6.13
2022-12-24T00:40:48.249Z,6.05
2022-12-24T00:43:15.424Z,6.10
2022-12-24T00:45:42.679Z,6.13
2022-12-24T00:48:09.238Z,6.00
2022-12-24T00:50:35.723Z,6.22
2022-12-24T00:53:02.217Z,5.94
2022-12-24T00:55:28.727Z,5.90
2022-12-24T00:57:55.178Z,5.89
2022-12-24T01:00:21.803Z,6.00
2022-12-24T01:02:48.415Z,6.19
2022-12-24T01:05:15.134Z,5.73
2022-12-24T01:07:44.322Z,5.88
2022-12-24T01:10:13.072Z,5.92
2022-12-24T01:12:40.674Z,6.23
2022-12-24T01:15:08.169Z,5.96
2022-12-24T01:17:35.077Z,5.95
2022-12-24T01:20:01.907Z,6.48
2022-12-24T01:22:28.389Z,6.81
2022-12-24T01:24:54.915Z,6.46
2022-12-24T01:27:21.476Z,6.34
2022-12-24T01:29:47.937Z,6.19
2022-12-24T01:32:14.445Z,6.20
2022-12-24T01:34:41.055Z,6.40
2022-12-24T01:37:07.486Z,6.73
2022-12-24T01:39:34.088Z,5.87
2022-12-24T01:42:19.285Z,6.37
2022-12-24T01:44:48.541Z,6.38
2022-12-24T01:47:19.854Z,6.76
2022-12-24T01:50:12.578Z,6.49
2022-12-24T01:52:39.400Z,6.57
2022-12-24T01:55:09.516Z,6.56
2022-12-24T01:57:42.447Z,6.63
2022-12-24T02:00:12.299Z,6.66
2022-12-24T02:02:45.190Z,6.56
2022-12-24T02:05:15.657Z,6.72
2022-12-24T02:07:42.345Z,6.38
2022-12-24T02:10:11.182Z,6.35
2022-12-24T02:12:38.020Z,6.46
2022-12-24T02:15:06.855Z,6.56
2022-12-24T02:17:43.387Z,6.60
2022-12-24T02:20:40.194Z,6.55
2022-12-24T02:23:34.771Z,6.35
2022-12-24T02:26:25.629Z,6.44
2022-12-24T02:29:20.233Z,6.65
2022-12-24T02:31:59.545Z,6.76
2022-12-24T02:34:32.068Z,6.76
2022-12-24T02:37:18.392Z,6.29
2022-12-24T02:39:57.116Z,6.06
2022-12-24T02:42:32.371Z,6.27
2022-12-24T02:45:11.439Z,6.56
2022-12-24T02:47:38.408Z,6.82
2022-12-24T02:50:07.908Z,6.52
2022-12-24T02:52:35.706Z,6.87
2022-12-24T02:55:27.978Z,6.45
2022-12-24T02:58:18.498Z,6.18
2022-12-24T03:01:17.419Z,6.56
2022-12-24T03:04:39.200Z,6.99
2022-12-24T03:07:23.627Z,6.33
2022-12-24T03:10:04.692Z,6.35
2022-12-24T03:12:44.395Z,6.62
2022-12-24T03:15:13.744Z,6.51
2022-12-24T03:17:42.836Z,6.73
2022-12-24T03:20:11.304Z,6.56
2022-12-24T03:22:38.164Z,6.77
2022-12-24T03:25:05.305Z,6.85
2022-12-24T03:27:32.870Z,6.21
2022-12-24T03:29:59.578Z,6.34
2022-12-24T03:32:29.959Z,6.50
2022-12-24T03:34:56.742Z,6.45
2022-12-24T03:37:23.993Z,6.82
2022-12-24T03:39:50.490Z,6.78
2022-12-24T03:42:16.989Z,6.61
2022-12-24T03:44:43.568Z,6.92
2022-12-24T03:47:10.046Z,6.92
2022-12-24T03:49:36.491Z,6.86
2022-12-24T03:52:03.243Z,6.39
2022-12-24T03:54:29.750Z,6.05
2022-12-24T03:56:56.209Z,6.62
2022-12-24T03:59:22.667Z,7.02
2022-12-24T04:01:49.428Z,6.99
2022-12-24T04:04:16.266Z,7.02
2022-12-24T04:06:42.804Z,7.13
2022-12-24T04:09:09.283Z,7.15
2022-12-24T04:11:35.780Z,6.77
2022-12-24T04:14:02.228Z,6.91
2022-12-24T04:16:28.705Z,6.58
2022-12-24T04:18:55.249Z,6.60
2022-12-24T04:21:21.736Z,6.70
2022-12-24T04:23:48.322Z,7.21
2022-12-24T04:26:15.044Z,7.09
2022-12-24T04:28:42.594Z,7.06
2022-12-24T04:31:12.287Z,7.04
2022-12-24T04:33:38.827Z,6.94
2022-12-24T04:36:07.022Z,7.10
2022-12-24T04:38:34.262Z,7.21
2022-12-24T04:41:03.234Z,7.30
2022-12-24T04:43:30.300Z,7.51
2022-12-24T04:45:57.042Z,7.22
2022-12-24T04:48:23.544Z,7.18
2022-12-24T04:50:50.013Z,6.84
2022-12-24T04:53:16.548Z,6.70
2022-12-24T04:55:46.070Z,6.66
2022-12-24T04:58:13.140Z,7.13
2022-12-24T05:00:40.389Z,6.96
2022-12-24T05:03:07.242Z,6.90
2022-12-24T05:05:33.754Z,7.00
2022-12-24T05:08:00.250Z,7.30
2022-12-24T05:10:26.762Z,7.04
2022-12-24T05:12:53.464Z,6.98
2022-12-24T05:15:19.927Z,6.84
2022-12-24T05:17:46.399Z,7.21
2022-12-24T05:20:12.844Z,7.31
2022-12-24T05:22:58.073Z,6.68
2022-12-24T05:25:43.009Z,6.90
2022-12-24T05:28:09.472Z,6.99
2022-12-24T05:30:35.947Z,7.01
2022-12-24T05:33:02.468Z,7.10
2022-12-24T05:35:28.909Z,7.02
2022-12-24T05:37:58.285Z,6.96
2022-12-24T05:40:24.915Z,6.87
2022-12-24T05:42:51.377Z,6.89
2022-12-24T05:45:17.871Z,6.85
2022-12-24T05:47:44.282Z,6.84
2022-12-24T05:50:11.118Z,7.08
2022-12-24T05:52:37.553Z,6.95
2022-12-24T05:55:04.752Z,7.04
2022-12-24T05:57:31.184Z,7.11
2022-12-24T05:59:57.639Z,6.97
2022-12-24T06:02:24.183Z,7.03
2022-12-24T06:04:50.722Z,6.92
2022-12-24T06:07:17.206Z,6.64
2022-12-24T06:09:43.679Z,6.81
2022-12-24T06:12:10.107Z,6.88
2022-12-24T06:14:36.567Z,6.89
2022-12-24T06:17:03.044Z,6.83
2022-12-24T06:19:29.541Z,7.09
2022-12-24T06:21:55.973Z,6.98
2022-12-24T06:24:22.448Z,6.74
2022-12-24T06:26:48.878Z,6.73
2022-12-24T06:29:15.348Z,6.69
2022-12-24T06:31:41.847Z,6.38
2022-12-24T06:34:08.343Z,6.33
2022-12-24T06:36:34.851Z,6.56
2022-12-24T06:39:01.423Z,6.11
2022-12-24T06:41:27.951Z,6.55
2022-12-24T06:43:54.492Z,6.45
2022-12-24T06:46:21.642Z,6.64
2022-12-24T06:48:48.546Z,6.31
2022-12-24T06:51:16.688Z,6.40
2022-12-24T06:53:43.153Z,6.37
2022-12-24T06:56:12.177Z,6.49
2022-12-24T06:58:39.129Z,6.58
2022-12-24T07:01:07.352Z,6.63
2022-12-24T07:03:34.309Z,6.39
2022-12-24T07:06:01.141Z,6.79
2022-12-24T07:08:27.887Z,6.55
2022-12-24T07:10:54.761Z,6.38
2022-12-24T07:13:21.479Z,6.30
2022-12-24T07:15:48.000Z,6.30
2022-12-24T07:18:14.471Z,6.34
2022-12-24T07:20:42.815Z,6.27
2022-12-24T07:23:09.272Z,6.14
2022-12-24T07:25:35.733Z,6.44
2022-12-24T07:28:02.161Z,6.47
2022-12-24T07:30:28.706Z,6.48
2022-12-24T07:32:55.162Z,6.63
2022-12-24T07:35:21.663Z,6.75
2022-12-24T07:37:48.097Z,6.74
2022-12-24T07:40:14.851Z,6.72
2022-12-24T07:42:41.301Z,6.61
2022-12-24T07:45:08.178Z,6.68
2022-12-24T07:47:35.194Z,6.46
2022-12-24T07:50:01.744Z,6.70
2022-12-24T07:52:28.186Z,6.48
2022-12-24T07:54:54.687Z,6.84
2022-12-24T07:57:21.128Z,6.49
2022-12-24T07:59:47.601Z,6.29
2022-12-24T08:02:18.213Z,6.64
2022-12-24T08:04:45.208Z,6.79
2022-12-24T08:07:11.680Z,7.09
2022-12-24T08:09:38.574Z,7.18
2022-12-24T08:12:05.297Z,6.96
2022-12-24T08:14:31.983Z,6.84
2022-12-24T08:16:58.490Z,7.07
2022-12-24T08:19:25.097Z,6.75
2022-12-24T08:21:51.571Z,7.06
2022-12-24T08:24:18.092Z,7.09
2022-12-24T08:26:44.597Z,7.22
2022-12-24T08:29:11.925Z,7.21
2022-12-24T08:31:38.576Z,6.69
2022-12-24T08:34:06.998Z,7.34
2022-12-24T08:36:34.116Z,7.27
2022-12-24T08:39:03.501Z,7.46
2022-12-24T08:41:31.337Z,7.27
2022-12-24T08:43:57.860Z,7.05
2022-12-24T08:46:24.416Z,7.38
2022-12-24T08:48:50.885Z,7.03
2022-12-24T08:51:19.202Z,7.16
2022-12-24T08:53:46.792Z,7.25
2022-12-24T08:56:13.836Z,7.25
2022-12-24T08:58:40.427Z,6.97
2022-12-24T09:01:16.363Z,7.19
2022-12-24T09:03:43.319Z,6.97
2022-12-24T09:06:10.472Z,6.86
2022-12-24T09:08:37.396Z,7.02
2022-12-24T09:11:09.588Z,7.38
2022-12-24T09:13:36.152Z,7.27
2022-12-24T09:16:02.951Z,7.60
2022-12-24T09:18:29.878Z,7.60
2022-12-24T09:21:01.193Z,7.70
2022-12-24T09:23:28.646Z,7.44
2022-12-24T09:25:55.229Z,7.66
2022-12-24T09:28:22.344Z,7.60
2022-12-24T09:30:59.964Z,7.77
2022-12-24T09:33:28.136Z,7.36
2022-12-24T09:35:54.826Z,7.50
2022-12-24T09:38:22.121Z,7.31
2022-12-24T09:40:49.367Z,7.30
2022-12-24T09:43:21.945Z,6.89
2022-12-24T09:46:14.743Z,7.72
2022-12-24T09:48:44.607Z,7.31
2022-12-24T09:51:13.243Z,6.87
2022-12-24T09:53:45.827Z,7.02
2022-12-24T09:56:38.038Z,7.27
2022-12-24T09:59:09.325Z,7.63
2022-12-24T10:01:35.970Z,7.11
2022-12-24T10:04:11.390Z,7.38
2022-12-24T10:06:54.601Z,7.27
2022-12-24T10:09:39.391Z,7.22
2022-12-24T10:12:14.387Z,7.77
2022-12-24T10:14:50.267Z,7.36
2022-12-24T10:17:32.321Z,7.14
2022-12-24T10:20:20.643Z,7.23
2022-12-24T10:22:55.157Z,7.07
2022-12-24T10:25:26.644Z,7.39
2022-12-24T10:27:54.999Z,7.49
2022-12-24T10:30:23.198Z,7.41
2022-12-24T10:32:52.026Z,7.70
2022-12-24T10:35:20.209Z,7.70
2022-12-24T10:37:48.866Z,7.70
2022-12-24T10:40:35.733Z,7.34
2022-12-24T10:43:02.429Z,8.02
2022-12-24T10:45:37.686Z,7.90
2022-12-24T10:48:07.782Z,7.39
2022-12-24T10:50:53.810Z,7.54
2022-12-24T10:53:37.104Z,7.63
2022-12-24T10:56:07.934Z,7.18
2022-12-24T10:58:35.349Z,7.12
2022-12-24T11:01:02.444Z,6.83
2022-12-24T11:03:34.932Z,7.78
2022-12-24T11:06:08.142Z,7.29
2022-12-24T11:08:36.745Z,7.30
2022-12-24T11:11:06.055Z,7.67
2022-12-24T11:13:39.532Z,7.04
2022-12-24T11:16:10.417Z,6.97
2022-12-24T11:18:40.154Z,7.26
2022-12-24T11:21:08.956Z,6.93
2022-12-24T11:23:35.552Z,7.82
2022-12-24T11:26:02.343Z,7.61
2022-12-24T11:28:33.507Z,7.13
2022-12-24T11:31:07.236Z,7.38
2022-12-24T11:33:46.922Z,7.70
2022-12-24T11:36:13.995Z,7.38
2022-12-24T11:38:41.069Z,7.67
2022-12-24T11:41:11.856Z,7.44
2022-12-24T11:43:46.364Z,7.37
2022-12-24T11:46:17.488Z,7.33
2022-12-24T11:48:44.156Z,7.16
2022-12-24T11:51:25.197Z,6.82
2022-12-24T11:54:01.049Z,6.96
2022-12-24T11:56:40.661Z,7.21
2022-12-24T11:59:39.507Z,8.14
2022-12-24T12:02:34.725Z,7.63
2022-12-24T12:05:07.982Z,7.06
2022-12-24T12:07:36.501Z,7.19
2022-12-24T12:10:21.517Z,7.49
2022-12-24T12:12:56.408Z,7.95
2022-12-24T12:15:25.722Z,7.71
2022-12-24T12:17:56.747Z,7.72
2022-12-24T12:20:47.990Z,7.83
2022-12-24T12:23:47.323Z,7.89
2022-12-24T12:26:26.620Z,7.16
2022-12-24T12:29:11.301Z,7.60
2022-12-24T12:31:55.111Z,7.65
2022-12-24T12:34:24.723Z,7.93
2022-12-24T12:36:53.433Z,7.60
2022-12-24T12:39:21.522Z,7.42
2022-12-24T12:41:55.642Z,7.79
2022-12-24T12:44:38.452Z,7.80
2022-12-24T12:47:27.416Z,7.62
2022-12-24T12:50:08.685Z,8.20
2022-12-24T12:52:47.265Z,7.87
2022-12-24T12:55:32.002Z,8.05
2022-12-24T12:58:01.601Z,7.56
2022-12-24T13:00:31.044Z,7.51
2022-12-24T13:03:09.764Z,8.12
2022-12-24T13:05:39.294Z,8.19
2022-12-24T13:08:36.728Z,7.97
2022-12-24T13:11:51.457Z,8.41
2022-12-24T13:14:30.598Z,8.35
2022-12-24T13:17:06.078Z,8.00
2022-12-24T13:19:54.575Z,8.26
2022-12-24T13:22:22.159Z,8.26
2022-12-24T13:24:52.374Z,8.23
2022-12-24T13:27:32.266Z,8.02
2022-12-24T13:30:10.004Z,8.01
2022-12-24T13:32:47.606Z,7.82
2022-12-24T13:35:20.827Z,7.76
2022-12-24T13:37:51.285Z,8.24
2022-12-24T13:40:25.350Z,8.32
2022-12-24T13:43:01.346Z,8.31
2022-12-24T13:45:31.062Z,8.57
2022-12-24T13:48:01.482Z,8.61
2022-12-24T13:51:18.211Z,8.07
2022-12-24T13:53:46.549Z,8.22
2022-12-24T13:56:15.273Z,8.00
2022-12-24T13:58:44.856Z,8.25
2022-12-24T14:01:22.480Z,8.26
2022-12-24T14:03:51.761Z,8.50
2022-12-24T14:06:36.561Z,8.57
2022-12-24T14:09:17.514Z,8.34
2022-12-24T14:12:07.903Z,8.14
2022-12-24T14:14:38.918Z,8.00
2022-12-24T14:17:27.243Z,8.39
2022-12-24T14:20:02.415Z,8.57
2022-12-24T14:22:34.528Z,8.86
2022-12-24T14:25:08.277Z,8.88
2022-12-24T14:27:48.333Z,8.50
2022-12-24T14:30:24.274Z,8.09
2022-12-24T14:32:52.371Z,8.48
2022-12-24T14:35:20.831Z,8.33
2022-12-24T14:38:06.078Z,8.24
2022-12-24T14:40:35.790Z,8.27
2022-12-24T14:43:35.165Z,8.53
2022-12-24T14:46:29.240Z,8.67
2022-12-24T14:49:01.356Z,8.50
2022-12-24T14:51:41.369Z,8.68
2022-12-24T14:54:30.360Z,8.57
2022-12-24T14:57:13.031Z,8.63
2022-12-24T15:00:01.805Z,8.09
2022-12-24T15:02:49.758Z,8.11
2022-12-24T15:05:29.415Z,8.48
2022-12-24T15:08:16.955Z,8.44
2022-12-24T15:10:45.652Z,8.57
2022-12-24T15:13:32.656Z,8.71
2022-12-24T15:16:04.574Z,8.92
2022-12-24T15:18:33.752Z,8.86
2022-12-24T15:21:04.705Z,8.68
2022-12-24T15:23:37.135Z,8.33
2022-12-24T15:26:24.725Z,8.54
2022-12-24T15:29:03.773Z,8.68
2022-12-24T15:31:32.171Z,8.74
2022-12-24T15:34:00.622Z,8.54
2022-12-24T15:36:33.008Z,8.40
2022-12-24T15:39:05.611Z,8.41
2022-12-24T15:42:00.896Z,8.53
2022-12-24T15:44:36.395Z,8.42
2022-12-24T15:47:06.584Z,8.41
2022-12-24T15:49:35.554Z,8.48
2022-12-24T15:52:08.693Z,8.98
2022-12-24T15:54:37.459Z,8.42
2022-12-24T15:57:23.129Z,8.54
2022-12-24T15:59:56.463Z,8.60
2022-12-24T16:02:33.048Z,8.31
2022-12-24T16:05:40.501Z,8.78
2022-12-24T16:08:23.265Z,8.26
2022-12-24T16:10:53.415Z,8.74
2022-12-24T16:13:23.747Z,8.92
2022-12-24T16:16:01.489Z,8.72
2022-12-24T16:18:59.917Z,9.11
2022-12-24T16:21:47.165Z,8.89
2022-12-24T16:24:20.366Z,8.58
2022-12-24T16:26:48.339Z,8.27
2022-12-24T16:29:19.563Z,8.28
2022-12-24T16:31:54.584Z,8.63
2022-12-24T16:34:25.157Z,8.83
2022-12-24T16:36:52.671Z,9.00
2022-12-24T16:39:34.727Z,8.97
2022-12-24T16:42:22.687Z,9.01
2022-12-24T16:44:53.967Z,8.87
2022-12-24T16:47:23.287Z,8.67
2022-12-24T16:49:50.999Z,8.52
2022-12-24T16:52:25.482Z,8.67
2022-12-24T16:54:54.146Z,8.69
2022-12-24T16:57:22.071Z,8.79
2022-12-24T16:59:52.447Z,8.48
2022-12-24T17:02:24.611Z,8.92
2022-12-24T17:04:52.035Z,8.77
2022-12-24T17:07:21.548Z,8.99
2022-12-24T17:09:50.899Z,8.98
2022-12-24T17:12:19.604Z,8.94
2022-12-24T17:14:55.275Z,9.09
2022-12-24T17:17:29.026Z,9.03
2022-12-24T17:19:57.592Z,9.29
2022-12-24T17:22:25.064Z,8.69
2022-12-24T17:24:52.815Z,8.94
2022-12-24T17:27:19.996Z,8.90
2022-12-24T17:29:46.909Z,8.77
2022-12-24T17:32:13.589Z,8.53
2022-12-24T17:34:48.073Z,8.71
2022-12-24T17:37:14.580Z,9.00
2022-12-24T17:39:41.072Z,8.87
2022-12-24T17:42:07.582Z,9.22
2022-12-24T17:44:34.123Z,8.88
2022-12-24T17:47:01.959Z,9.08
2022-12-24T17:49:29.349Z,9.25
2022-12-24T17:51:56.111Z,8.86
2022-12-24T17:54:22.670Z,9.29
2022-12-24T17:56:49.178Z,9.41
2022-12-24T17:59:15.965Z,9.44
2022-12-24T18:01:42.536Z,9.33
2022-12-24T18:04:10.108Z,9.47
2022-12-24T18:06:39.948Z,9.35
2022-12-24T18:09:08.474Z,9.11
2022-12-24T18:11:36.736Z,9.49
2022-12-24T18:14:05.277Z,9.61
2022-12-24T18:16:34.706Z,9.46
2022-12-24T18:19:01.570Z,9.51
2022-12-24T18:21:32.661Z,9.68
2022-12-24T18:23:59.420Z,9.80
2022-12-24T18:26:27.714Z,9.45
2022-12-24T18:28:56.183Z,9.82
2022-12-24T18:31:23.895Z,9.88
2022-12-24T18:33:51.200Z,9.97
2022-12-24T18:36:18.727Z,9.83
2022-12-24T18:38:45.311Z,10.03
2022-12-24T18:41:14.264Z,9.72
2022-12-24T18:43:41.543Z,9.71
2022-12-24T18:46:13.712Z,9.96
2022-12-24T18:48:40.367Z,9.72
2022-12-24T18:51:07.592Z,10.09
2022-12-24T18:53:34.421Z,10.25
2022-12-24T18:56:11.472Z,10.65
2022-12-24T18:58:38.042Z,10.32
2022-12-24T19:01:19.490Z,10.25
2022-12-24T19:03:47.980Z,10.29
2022-12-24T19:06:14.548Z,9.87
2022-12-24T19:08:59.215Z,10.39
2022-12-24T19:11:27.836Z,10.35
2022-12-24T19:13:54.409Z,10.29
2022-12-24T19:16:21.598Z,9.91
2022-12-24T19:18:48.328Z,10.17
2022-12-24T19:21:17.208Z,10.02
2022-12-24T19:23:44.816Z,10.08
2022-12-24T19:26:12.589Z,10.05
2022-12-24T19:28:39.303Z,10.20
2022-12-24T19:31:10.940Z,10.18
2022-12-24T19:33:44.142Z,10.47
2022-12-24T19:36:13.518Z,10.09
2022-12-24T19:38:40.449Z,9.74
2022-12-24T19:41:12.772Z,10.23
2022-12-24T19:43:47.616Z,9.74
2022-12-24T19:46:16.251Z,10.13
2022-12-24T19:48:43.595Z,9.89
2022-12-24T19:51:11.982Z,10.09
2022-12-24T19:53:39.756Z,10.02
2022-12-24T19:56:07.048Z,10.38
2022-12-24T19:58:33.574Z,10.10
2022-12-24T20:01:14.524Z,9.73
2022-12-24T20:03:42.163Z,9.95
2022-12-24T20:06:08.757Z,9.50
2022-12-24T20:08:36.665Z,9.50
2022-12-24T20:11:05.730Z,9.76
2022-12-24T20:13:33.582Z,9.64
2022-12-24T20:16:04.669Z,9.42
2022-12-24T20:18:31.354Z,9.45
2022-12-24T20:21:02.336Z,9.57
2022-12-24T20:23:28.931Z,9.46
2022-12-24T20:26:00.195Z,9.44
2022-12-24T20:28:28.161Z,9.28
2022-12-24T20:30:54.628Z,9.32
2022-12-24T20:33:21.337Z,9.35
2022-12-24T20:35:48.265Z,9.28
2022-12-24T20:38:14.999Z,9.32
2022-12-24T20:40:42.847Z,9.48
2022-12-24T20:43:09.672Z,9.40
2022-12-24T20:45:36.525Z,9.53
2022-12-24T20:48:03.116Z,9.26
2022-12-24T20:50:29.548Z,9.27
2022-12-24T20:52:56.064Z,9.20
2022-12-24T20:55:22.601Z,9.13
2022-12-24T20:57:49.813Z,9.05
2022-12-24T21:00:17.379Z,8.99
2022-12-24T21:02:46.691Z,9.07
2022-12-24T21:05:13.479Z,9.05
2022-12-24T21:07:42.982Z,8.87
2022-12-24T21:10:11.231Z,9.00
2022-12-24T21:12:50.011Z,8.78
2022-12-24T21:15:19.127Z,8.80
2022-12-24T21:17:46.917Z,8.79
2022-12-24T21:20:14.415Z,8.76
2022-12-24T21:22:40.970Z,8.81
2022-12-24T21:25:23.811Z,9.00
2022-12-24T21:27:52.367Z,8.84
2022-12-24T21:30:19.450Z,8.99
2022-12-24T21:32:45.962Z,9.20
2022-12-24T21:35:14.494Z,9.03
2022-12-24T21:37:42.254Z,9.10
2022-12-24T21:40:09.797Z,9.29
2022-12-24T21:42:38.588Z,9.11
2022-12-24T21:45:06.215Z,9.07
2022-12-24T21:47:34.596Z,9.36
2022-12-24T21:50:19.787Z,9.28
2022-12-24T21:52:47.031Z,9.18
2022-12-24T21:55:13.521Z,8.98
2022-12-24T21:57:55.469Z,8.93
2022-12-24T22:00:22.166Z,9.15
2022-12-24T22:02:50.593Z,9.43
2022-12-24T22:05:17.574Z,8.85
2022-12-24T22:08:02.935Z,9.07
2022-12-24T22:10:48.091Z,8.73
2022-12-24T22:13:16.332Z,8.64
2022-12-24T22:15:46.933Z,8.74
2022-12-24T22:18:16.048Z,8.72
2022-12-24T22:20:44.985Z,8.71
2022-12-24T22:23:13.444Z,8.73
2022-12-24T22:25:42.608Z,8.29
2022-12-24T22:28:09.494Z,8.20
2022-12-24T22:30:38.973Z,8.30
2022-12-24T22:33:07.761Z,8.04
2022-12-24T22:35:39.492Z,8.26
2022-12-24T22:38:08.086Z,8.16
2022-12-24T22:40:35.556Z,8.22
2022-12-24T22:43:03.105Z,7.97
2022-12-24T22:45:31.552Z,8.33
2022-12-24T22:47:58.302Z,8.61
2022-12-24T22:50:25.575Z,7.78
2022-12-24T22:52:53.641Z,8.34
2022-12-24T22:55:21.350Z,8.45
2022-12-24T22:57:48.856Z,8.45
2022-12-24T23:00:36.839Z,8.51
2022-12-24T23:03:04.560Z,8.22
2022-12-24T23:05:31.245Z,8.33
2022-12-24T23:07:57.738Z,8.27
2022-12-24T23:10:24.405Z,8.27
2022-12-24T23:13:14.565Z,8.52
2022-12-24T23:15:41.711Z,8.82
2022-12-24T23:18:08.733Z,8.62
2022-12-24T23:20:42.345Z,8.51
2022-12-24T23:23:09.443Z,8.58
2022-12-24T23:25:35.992Z,8.36
2022-12-24T23:28:02.711Z,8.78
2022-12-24T23:30:29.138Z,8.63
2022-12-24T23:32:55.742Z,8.82
2022-12-24T23:35:22.202Z,8.70
2022-12-24T23:37:48.652Z,8.90
2022-12-24T23:40:15.123Z,8.81
2022-12-24T23:42:41.665Z,9.09
2022-12-24T23:45:08.718Z,8.85
2022-12-24T23:47:35.617Z,8.72
2022-12-24T23:50:02.179Z,9.22
2022-12-24T23:52:28.632Z,8.85
2022-12-24T23:54:55.136Z,8.95
2022-12-24T23:57:21.641Z,8.72
2022-12-24T23:59:48.139Z,8.99
